Time;durP1;ratioP1;P1;durP2;ratioP2;P2;SDS_P1;SDS_P2;PMS_P1;PMS_P2;Temp;Humidity;BMP_temperature;BMP_pressure;BME280_temperature;BME280_humidity;BME280_pressure;Samples;Min_cycle;Max_cycle;Signal;HPM_P1;HPM_P2
2022/09/23 00:01:53;;;;;;;16.58;9.32;;;10.90;99.90;;;;;;5022608;28;20103;-68
2022/09/23 00:04:19;;;;;;;14.55;9.07;;;10.90;99.90;;;;;;5023596;28;20084;-68
2022/09/23 00:06:45;;;;;;;12.38;8.80;;;10.80;99.90;;;;;;5023725;28;20847;-68
2022/09/23 00:09:11;;;;;;;11.60;8.32;;;10.90;99.90;;;;;;5005023;28;20045;-68
2022/09/23 00:11:37;;;;;;;12.80;9.35;;;10.80;99.90;;;;;;5024058;28;20340;-68
2022/09/23 00:14:03;;;;;;;14.23;9.10;;;10.80;99.90;;;;;;5023823;28;20045;-68
2022/09/23 00:16:32;;;;;;;13.70;8.88;;;10.80;99.90;;;;;;5023311;28;20045;-68
2022/09/23 00:18:59;;;;;;;14.75;9.20;;;10.80;99.90;;;;;;5022926;28;20053;-68
2022/09/23 00:21:26;;;;;;;11.85;8.52;;;10.80;99.90;;;;;;5025110;28;20049;-68
2022/09/23 00:23:52;;;;;;;15.18;8.95;;;10.70;99.90;;;;;;5026734;28;20545;-68
2022/09/23 00:26:19;;;;;;;13.68;9.80;;;10.70;99.90;;;;;;5027042;28;20138;-68
2022/09/23 00:28:46;;;;;;;14.98;9.30;;;10.70;99.90;;;;;;5023152;28;20045;-69
2022/09/23 00:31:24;;;;;;;14.70;8.68;;;10.70;99.90;;;;;;5028063;28;20494;-68
2022/09/23 00:33:58;;;;;;;12.75;8.63;;;10.70;99.90;;;;;;5009342;28;20049;-68
2022/09/23 00:36:25;;;;;;;14.73;9.35;;;10.70;99.90;;;;;;5058502;28;20056;-68
2022/09/23 00:38:52;;;;;;;14.35;8.43;;;10.70;99.90;;;;;;5026983;28;20558;-68
2022/09/23 00:41:18;;;;;;;11.90;8.45;;;10.60;99.90;;;;;;5027098;28;20050;-68
2022/09/23 00:43:55;;;;;;;15.38;9.32;;;10.60;99.90;;;;;;5027302;28;20041;-68
2022/09/23 00:46:28;;;;;;;15.73;9.35;;;10.60;99.90;;;;;;5025417;28;20160;-68
2022/09/23 00:49:02;;;;;;;12.90;9.07;;;10.60;99.90;;;;;;5026846;28;20049;-68
2022/09/23 00:51:37;;;;;;;13.95;9.27;;;10.60;99.90;;;;;;5025794;28;20279;-68
2022/09/23 00:54:05;;;;;;;12.98;9.45;;;10.60;99.90;;;;;;5024108;28;20037;-68
2022/09/23 00:56:32;;;;;;;13.57;9.73;;;10.60;99.90;;;;;;5027442;28;20073;-68
2022/09/23 00:58:59;;;;;;;15.80;9.77;;;10.60;99.90;;;;;;5026991;28;20102;-68
2022/09/23 01:01:25;;;;;;;16.33;9.82;;;10.60;99.90;;;;;;5028102;28;20041;-68
2022/09/23 01:03:53;;;;;;;12.18;8.82;;;10.60;99.90;;;;;;5042571;28;20041;-68
2022/09/23 01:06:19;;;;;;;14.43;9.40;;;10.60;99.90;;;;;;5025207;28;20125;-68
2022/09/23 01:08:46;;;;;;;13.88;9.63;;;10.60;99.90;;;;;;5042861;28;20046;-68
2022/09/23 01:11:25;;;;;;;13.35;9.18;;;10.50;99.90;;;;;;5042377;28;20045;-68
2022/09/23 01:14:06;;;;;;;16.08;10.13;;;10.60;99.90;;;;;;5052794;28;20073;-68
2022/09/23 01:16:50;;;;;;;13.55;9.57;;;10.60;99.90;;;;;;5042313;28;20042;-68
2022/09/23 01:19:34;;;;;;;15.38;10.48;;;10.50;99.90;;;;;;5023748;28;20049;-68
2022/09/23 01:22:12;;;;;;;15.48;10.18;;;10.50;99.90;;;;;;5024790;28;20100;-68
2022/09/23 01:25:05;;;;;;;14.23;9.55;;;10.50;99.90;;;;;;5027789;28;20621;-68
2022/09/23 01:27:40;;;;;;;11.90;9.35;;;10.50;99.90;;;;;;5025646;28;20038;-68
2022/09/23 01:30:08;;;;;;;14.15;10.18;;;10.50;99.90;;;;;;5024897;28;20049;-69
2022/09/23 01:32:56;;;;;;;15.65;10.05;;;10.50;99.90;;;;;;5041157;28;20083;-68
2022/09/23 01:35:30;;;;;;;16.95;10.30;;;10.50;99.90;;;;;;5025707;28;20076;-68
2022/09/23 01:38:08;;;;;;;17.27;10.18;;;10.50;99.90;;;;;;5024597;28;20037;-68
2022/09/23 01:41:12;;;;;;;15.25;10.25;;;10.50;99.90;;;;;;5027906;28;20056;-68
2022/09/23 01:43:53;;;;;;;14.52;10.07;;;10.50;99.90;;;;;;5023853;28;20528;-67
2022/09/23 01:46:26;;;;;;;19.73;10.85;;;10.40;99.90;;;;;;5024074;28;20124;-68
2022/09/23 01:49:16;;;;;;;15.88;9.95;;;10.50;99.90;;;;;;5024822;28;20041;-68
2022/09/23 01:51:48;;;;;;;14.60;9.63;;;10.40;99.90;;;;;;5057774;28;20046;-68
2022/09/23 01:54:17;;;;;;;14.18;9.85;;;10.50;99.90;;;;;;5025103;28;20037;-68
2022/09/23 01:56:51;;;;;;;15.63;10.25;;;10.40;99.90;;;;;;5022877;28;20072;-68
2022/09/23 01:59:25;;;;;;;15.32;10.23;;;10.40;99.90;;;;;;5025274;28;20033;-68
2022/09/23 02:02:18;;;;;;;19.10;10.70;;;10.50;99.90;;;;;;5007744;28;20037;-68
2022/09/23 02:04:50;;;;;;;15.25;10.02;;;10.50;99.90;;;;;;5025502;28;20035;-68
2022/09/23 02:07:50;;;;;;;15.70;10.57;;;10.50;99.90;;;;;;5025320;28;20114;-68
2022/09/23 02:10:31;;;;;;;14.38;10.75;;;10.50;99.90;;;;;;5024738;28;20399;-68
2022/09/23 02:13:08;;;;;;;17.80;10.07;;;10.50;99.90;;;;;;5007656;28;20048;-68
2022/09/23 02:15:56;;;;;;;15.48;11.23;;;10.40;99.90;;;;;;5024358;28;20076;-68
2022/09/23 02:18:25;;;;;;;16.58;10.45;;;10.50;99.90;;;;;;5038186;28;20083;-68
2022/09/23 02:20:57;;;;;;;21.85;10.45;;;10.40;99.90;;;;;;5026833;28;20069;-68
2022/09/23 02:23:33;;;;;;;17.50;10.50;;;10.40;99.90;;;;;;5023444;28;20130;-68
2022/09/23 02:26:18;;;;;;;17.25;10.15;;;10.40;99.90;;;;;;5023831;28;20064;-68
2022/09/23 02:29:08;;;;;;;14.15;10.20;;;10.40;99.90;;;;;;5023668;28;20443;-68
2022/09/23 02:31:53;;;;;;;16.73;10.57;;;10.40;99.90;;;;;;5024493;28;20502;-69
2022/09/23 02:34:37;;;;;;;18.48;10.00;;;10.40;99.90;;;;;;5055117;28;20038;-68
2022/09/23 02:37:14;;;;;;;15.38;9.93;;;10.40;99.90;;;;;;5024116;28;20053;-68
2022/09/23 02:39:49;;;;;;;14.82;10.00;;;10.30;99.90;;;;;;5026964;28;20490;-69
2022/09/23 02:42:23;;;;;;;16.83;10.65;;;10.30;99.90;;;;;;5054511;28;20073;-68
2022/09/23 02:44:49;;;;;;;17.20;10.60;;;10.30;99.90;;;;;;5023860;28;20049;-68
2022/09/23 02:47:19;;;;;;;15.27;9.88;;;10.30;99.90;;;;;;5008075;28;20515;-68
2022/09/23 02:49:45;;;;;;;15.68;9.80;;;10.30;99.90;;;;;;5025754;28;20132;-68
2022/09/23 02:52:12;;;;;;;14.70;9.65;;;10.30;99.90;;;;;;5023732;28;20120;-68
2022/09/23 02:54:39;;;;;;;14.27;9.75;;;10.20;99.90;;;;;;5026814;28;20048;-68
2022/09/23 02:57:07;;;;;;;17.13;10.60;;;10.20;99.90;;;;;;5024176;28;20394;-68
2022/09/23 02:59:34;;;;;;;15.75;10.80;;;10.20;99.90;;;;;;5026224;28;20125;-68
2022/09/23 03:02:06;;;;;;;13.93;10.40;;;10.20;99.90;;;;;;5022113;28;20484;-68
2022/09/23 03:04:51;;;;;;;17.38;10.82;;;10.10;99.90;;;;;;5023989;28;20482;-68
2022/09/23 03:07:19;;;;;;;15.32;11.07;;;10.10;99.90;;;;;;5038937;28;20053;-68
2022/09/23 03:10:03;;;;;;;15.82;10.75;;;10.30;99.90;;;;;;5007951;28;20041;-68
2022/09/23 03:12:46;;;;;;;17.20;11.57;;;10.10;99.90;;;;;;5020661;28;20072;-68
2022/09/23 03:15:36;;;;;;;17.05;10.88;;;10.00;99.90;;;;;;5023514;28;20132;-67
2022/09/23 03:18:16;;;;;;;19.25;11.40;;;10.00;99.90;;;;;;5005395;28;20075;-68
2022/09/23 03:20:54;;;;;;;17.13;11.57;;;10.00;99.90;;;;;;5007676;28;20076;-68
2022/09/23 03:23:26;;;;;;;17.33;10.75;;;10.00;99.90;;;;;;5025023;28;20057;-68
2022/09/23 03:25:54;;;;;;;18.02;11.30;;;10.00;99.90;;;;;;5027050;28;20235;-68
2022/09/23 03:28:21;;;;;;;18.60;11.52;;;9.90;99.90;;;;;;5023629;28;20049;-68
2022/09/23 03:30:49;;;;;;;16.85;12.27;;;9.90;99.90;;;;;;5024886;28;20051;-68
2022/09/23 03:33:18;;;;;;;16.10;10.85;;;9.90;99.90;;;;;;5022519;28;20037;-68
2022/09/23 03:38:41;;;;;;;17.55;11.82;;;9.90;99.90;;;;;;5055654;28;20528;-68
2022/09/23 03:41:15;;;;;;;15.70;10.95;;;9.80;99.90;;;;;;5006804;28;20406;-68
2022/09/23 03:43:43;;;;;;;17.13;11.90;;;9.80;99.90;;;;;;5024321;28;20041;-68
2022/09/23 03:46:09;;;;;;;16.20;11.27;;;9.80;99.90;;;;;;5022162;28;20409;-68
2022/09/23 03:48:35;;;;;;;17.70;12.13;;;9.80;99.90;;;;;;5023367;28;20411;-68
2022/09/23 03:51:31;;;;;;;17.90;11.77;;;9.70;99.90;;;;;;5006966;28;20176;-68
2022/09/23 03:53:56;;;;;;;16.80;11.48;;;9.70;99.90;;;;;;5022641;28;20079;-68
2022/09/23 03:56:22;;;;;;;15.70;11.02;;;9.70;99.90;;;;;;5022001;28;20053;-68
2022/09/23 03:58:48;;;;;;;15.50;11.32;;;9.70;99.90;;;;;;5027186;28;20045;-68
2022/09/23 04:01:14;;;;;;;16.83;12.25;;;9.70;99.90;;;;;;5011533;28;20038;-69
2022/09/23 04:03:40;;;;;;;17.88;11.85;;;9.70;99.90;;;;;;5027347;28;20069;-68
2022/09/23 04:06:06;;;;;;;14.68;11.90;;;9.60;99.90;;;;;;5027396;28;20038;-68
2022/09/23 04:08:32;;;;;;;15.35;11.90;;;9.60;99.90;;;;;;5041014;28;20053;-68
2022/09/23 04:11:02;;;;;;;16.15;11.40;;;9.60;99.90;;;;;;5043353;28;20042;-68
2022/09/23 04:13:28;;;;;;;16.00;11.50;;;9.60;99.90;;;;;;5025712;28;20081;-68
2022/09/23 04:15:54;;;;;;;18.23;11.88;;;9.60;99.90;;;;;;5044117;28;20119;-68
2022/09/23 04:18:20;;;;;;;15.70;11.75;;;9.80;99.90;;;;;;5026057;28;20060;-68
2022/09/23 04:20:46;;;;;;;16.15;11.15;;;9.60;99.90;;;;;;5026301;28;20442;-68
2022/09/23 04:23:12;;;;;;;14.15;11.02;;;9.60;99.90;;;;;;5027109;28;20521;-68
2022/09/23 04:25:48;;;;;;;17.65;11.40;;;9.50;99.90;;;;;;5027169;28;20045;-68
2022/09/23 04:28:14;;;;;;;18.00;13.57;;;9.50;99.90;;;;;;5026493;28;20037;-68
2022/09/23 04:30:45;;;;;;;17.10;13.10;;;9.50;99.90;;;;;;5027332;28;20049;-68
2022/09/23 04:33:11;;;;;;;15.75;12.57;;;9.50;99.90;;;;;;5030845;28;20041;-68
2022/09/23 04:35:38;;;;;;;17.20;12.02;;;9.70;99.90;;;;;;5029486;28;20381;-68
2022/09/23 04:38:06;;;;;;;15.38;11.77;;;9.40;99.90;;;;;;5025315;28;20498;-68
2022/09/23 04:40:33;;;;;;;15.82;11.95;;;9.60;99.90;;;;;;5028415;28;20123;-68
2022/09/23 04:42:58;;;;;;;16.75;12.57;;;9.40;99.90;;;;;;5024659;28;20034;-68
2022/09/23 04:45:24;;;;;;;18.27;12.27;;;9.40;99.90;;;;;;5028349;28;20179;-68
2022/09/23 04:47:50;;;;;;;16.10;13.05;;;9.40;99.90;;;;;;5027232;28;20120;-68
2022/09/23 04:50:16;;;;;;;17.50;12.85;;;9.40;99.90;;;;;;5028278;28;20619;-68
2022/09/23 04:52:42;;;;;;;15.90;12.05;;;9.40;99.90;;;;;;5026462;28;20468;-68
2022/09/23 04:55:08;;;;;;;17.65;12.93;;;9.60;99.90;;;;;;5027945;28;20047;-68
2022/09/23 04:57:34;;;;;;;18.20;14.18;;;9.30;99.90;;;;;;5028017;28;20465;-68
2022/09/23 05:00:00;;;;;;;18.98;13.70;;;9.40;99.90;;;;;;5024833;28;20033;-68
2022/09/23 05:02:27;;;;;;;19.00;12.95;;;9.30;99.90;;;;;;5025292;28;20041;-67
2022/09/23 05:04:53;;;;;;;18.10;12.43;;;9.30;99.90;;;;;;5040247;28;20344;-68
2022/09/23 05:07:19;;;;;;;16.27;13.45;;;9.30;99.90;;;;;;5025811;28;20049;-68
2022/09/23 05:09:46;;;;;;;21.00;13.45;;;9.30;99.90;;;;;;5027253;28;20124;-68
2022/09/23 05:12:12;;;;;;;18.38;12.60;;;9.30;99.90;;;;;;5024686;28;20096;-69
2022/09/23 05:14:40;;;;;;;18.02;13.30;;;9.30;99.90;;;;;;5019773;28;21506;-69
2022/09/23 05:17:06;;;;;;;19.05;13.70;;;9.30;99.90;;;;;;5033048;28;20049;-69
2022/09/23 05:19:34;;;;;;;19.05;13.02;;;9.30;99.90;;;;;;5053609;28;20060;-68
2022/09/23 05:22:00;;;;;;;19.92;13.35;;;9.30;99.90;;;;;;5021697;28;20041;-68
2022/09/23 05:24:26;;;;;;;20.30;14.07;;;9.30;99.90;;;;;;5019790;28;20247;-69
2022/09/23 05:26:53;;;;;;;21.60;14.88;;;9.30;99.90;;;;;;5001636;28;20041;-69
2022/09/23 05:29:18;;;;;;;20.27;13.70;;;9.20;99.90;;;;;;5015966;28;20049;-69
2022/09/23 05:31:44;;;;;;;19.67;14.88;;;9.50;99.90;;;;;;5034287;28;20465;-68
2022/09/23 05:34:10;;;;;;;20.48;14.40;;;9.20;99.90;;;;;;5020048;28;20049;-68
2022/09/23 05:36:36;;;;;;;19.10;13.27;;;9.60;99.90;;;;;;5021902;28;20045;-69
2022/09/23 05:39:05;;;;;;;18.33;12.57;;;9.20;99.90;;;;;;5013540;28;20034;-68
2022/09/23 05:41:35;;;;;;;18.85;13.90;;;9.20;99.90;;;;;;5012723;28;20076;-69
2022/09/23 05:44:00;;;;;;;18.65;14.43;;;9.20;99.90;;;;;;5029818;28;20104;-70
2022/09/23 05:46:29;;;;;;;18.67;14.43;;;9.30;99.90;;;;;;5013387;28;20132;-69
2022/09/23 05:48:56;;;;;;;20.63;13.35;;;9.20;99.90;;;;;;5012024;28;20060;-70
2022/09/23 05:51:25;;;;;;;17.10;13.40;;;9.30;99.90;;;;;;5014260;28;20281;-68
2022/09/23 05:53:52;;;;;;;18.50;14.30;;;9.30;99.90;;;;;;5005624;28;20069;-69
2022/09/23 05:56:21;;;;;;;16.95;13.82;;;9.30;99.90;;;;;;5011113;28;20549;-68
2022/09/23 05:58:52;;;;;;;21.77;14.38;;;9.30;99.90;;;;;;5031444;28;20817;-68
2022/09/23 06:01:20;;;;;;;22.08;14.60;;;9.30;99.90;;;;;;5021259;28;20046;-69
2022/09/23 06:03:47;;;;;;;18.60;13.70;;;9.30;99.90;;;;;;5009528;28;20049;-69
2022/09/23 06:06:14;;;;;;;16.52;13.38;;;9.40;99.90;;;;;;5008254;28;20079;-69
2022/09/23 06:08:40;;;;;;;16.08;13.45;;;9.40;99.90;;;;;;5012158;28;20077;-69
2022/09/23 06:11:07;;;;;;;21.50;14.50;;;9.40;99.90;;;;;;5018376;28;20493;-69
2022/09/23 06:13:37;;;;;;;15.63;12.15;;;9.40;99.90;;;;;;5001029;28;20490;-68
2022/09/23 06:16:04;;;;;;;18.83;13.40;;;9.50;99.90;;;;;;5015135;28;20054;-68
2022/09/23 06:18:30;;;;;;;18.00;13.63;;;9.50;99.90;;;;;;4992653;28;22118;-69
2022/09/23 06:21:00;;;;;;;18.33;13.20;;;9.50;99.90;;;;;;5034290;28;20045;-68
2022/09/23 06:23:26;;;;;;;20.42;13.13;;;9.60;99.90;;;;;;5015392;28;20140;-68
2022/09/23 06:25:51;;;;;;;18.80;12.93;;;9.60;99.90;;;;;;5009978;28;20053;-68
2022/09/23 06:28:17;;;;;;;21.33;13.90;;;9.60;99.90;;;;;;5032290;28;20052;-68
2022/09/23 06:30:43;;;;;;;18.77;13.45;;;9.70;99.90;;;;;;5011605;28;20073;-68
2022/09/23 06:33:09;;;;;;;19.77;13.18;;;9.70;99.90;;;;;;5015812;28;20029;-69
2022/09/23 06:35:34;;;;;;;18.55;13.68;;;9.60;99.90;;;;;;5033936;28;20056;-69
2022/09/23 06:38:04;;;;;;;18.05;13.23;;;9.70;99.90;;;;;;5012997;28;20525;-69
2022/09/23 06:40:30;;;;;;;17.45;13.32;;;9.70;99.90;;;;;;5008706;28;20072;-69
2022/09/23 06:43:00;;;;;;;18.33;13.80;;;9.70;99.90;;;;;;5015514;28;20372;-69
2022/09/23 06:45:27;;;;;;;17.52;12.88;;;9.80;99.90;;;;;;5000295;28;20596;-70
2022/09/23 06:47:57;;;;;;;18.75;13.23;;;9.80;99.90;;;;;;5011941;28;20053;-69
2022/09/23 06:50:24;;;;;;;17.60;13.52;;;9.80;99.90;;;;;;5011223;28;20523;-69
2022/09/23 06:52:54;;;;;;;18.50;13.60;;;9.80;99.90;;;;;;5014904;28;20058;-70
2022/09/23 06:55:26;;;;;;;18.02;12.93;;;9.90;99.90;;;;;;5027772;28;20045;-68
2022/09/23 06:57:53;;;;;;;19.45;13.38;;;9.90;99.90;;;;;;5044675;28;20343;-68
2022/09/23 07:00:20;;;;;;;18.20;14.30;;;9.90;99.90;;;;;;5015113;28;20165;-69
2022/09/23 07:02:46;;;;;;;17.00;13.38;;;10.00;99.90;;;;;;5015703;28;20411;-68
2022/09/23 07:05:12;;;;;;;18.38;12.95;;;10.00;99.90;;;;;;5014948;28;20105;-71
2022/09/23 07:07:38;;;;;;;19.30;13.68;;;10.00;99.90;;;;;;5020370;28;20047;-71
2022/09/23 07:10:05;;;;;;;16.33;12.23;;;10.00;99.90;;;;;;5030662;28;20045;-72
2022/09/23 07:12:35;;;;;;;16.92;12.60;;;10.00;99.90;;;;;;5015673;28;20030;-72
2022/09/23 07:15:04;;;;;;;19.95;13.30;;;10.00;99.90;;;;;;5019619;28;20051;-72
2022/09/23 07:17:30;;;;;;;21.77;14.18;;;10.00;99.90;;;;;;5011311;28;20053;-72
2022/09/23 07:19:56;;;;;;;19.77;13.35;;;10.20;99.90;;;;;;5013662;28;20049;-70
2022/09/23 07:22:23;;;;;;;17.45;13.20;;;10.10;99.90;;;;;;5029542;28;20162;-71
2022/09/23 07:24:56;;;;;;;20.25;13.93;;;10.10;99.90;;;;;;4994717;28;20083;-71
2022/09/23 07:27:25;;;;;;;21.27;13.50;;;10.10;99.90;;;;;;5018418;28;20468;-71
2022/09/23 07:29:51;;;;;;;20.90;13.20;;;10.30;99.90;;;;;;5015640;28;20077;-71
2022/09/23 07:32:19;;;;;;;18.27;13.32;;;10.20;99.90;;;;;;5013323;28;20588;-72
2022/09/23 07:34:46;;;;;;;19.13;13.45;;;10.30;99.90;;;;;;5015817;28;20302;-71
2022/09/23 07:37:12;;;;;;;17.73;13.55;;;10.30;99.90;;;;;;5013948;28;20132;-70
2022/09/23 07:39:39;;;;;;;18.95;13.45;;;10.40;99.90;;;;;;5048020;28;20076;-71
2022/09/23 07:42:05;;;;;;;16.77;13.15;;;10.50;99.90;;;;;;5014481;28;20172;-72
2022/09/23 07:44:31;;;;;;;22.30;13.68;;;10.50;99.90;;;;;;5018545;28;20046;-72
2022/09/23 07:46:58;;;;;;;18.08;13.43;;;10.60;99.90;;;;;;5018688;28;20539;-72
2022/09/23 07:49:25;;;;;;;16.00;11.93;;;10.70;99.90;;;;;;5033827;28;20045;-72
2022/09/23 07:51:51;;;;;;;18.10;12.95;;;10.70;99.90;;;;;;5032818;28;20056;-71
2022/09/23 07:54:18;;;;;;;20.38;12.57;;;10.80;99.90;;;;;;5011963;28;20046;-70
2022/09/23 07:56:44;;;;;;;18.77;12.50;;;10.90;99.90;;;;;;5016974;28;20088;-71
2022/09/23 07:59:17;;;;;;;16.67;12.88;;;11.00;99.90;;;;;;5016834;28;20041;-71
2022/09/23 08:01:48;;;;;;;17.80;11.32;;;11.00;99.90;;;;;;5012990;28;20628;-71
2022/09/23 08:04:17;;;;;;;16.70;12.20;;;11.10;99.90;;;;;;5012466;28;20681;-71
2022/09/23 08:06:46;;;;;;;16.42;12.68;;;11.10;99.90;;;;;;5014809;28;20383;-71
2022/09/23 08:09:12;;;;;;;19.35;11.73;;;11.10;99.90;;;;;;4996004;28;20610;-71
2022/09/23 08:11:40;;;;;;;19.05;12.02;;;11.20;99.90;;;;;;4995806;28;20364;-71
2022/09/23 08:14:12;;;;;;;17.88;11.27;;;11.20;99.90;;;;;;5014367;28;20138;-71
2022/09/23 08:16:39;;;;;;;17.77;11.73;;;11.20;99.90;;;;;;5013652;28;20404;-72
2022/09/23 08:19:05;;;;;;;19.52;12.80;;;11.30;99.90;;;;;;5031007;28;21460;-70
2022/09/23 08:21:33;;;;;;;22.00;12.35;;;11.30;99.90;;;;;;5033467;28;20069;-70
2022/09/23 08:23:59;;;;;;;14.20;12.07;;;11.30;99.90;;;;;;5021839;28;20048;-71
2022/09/23 08:26:24;;;;;;;14.55;11.40;;;11.40;99.90;;;;;;5005808;28;20049;-72
2022/09/23 08:28:52;;;;;;;16.00;11.77;;;11.40;99.90;;;;;;5021472;28;20047;-70
2022/09/23 08:31:22;;;;;;;15.73;11.27;;;11.50;99.90;;;;;;5020753;28;20050;-71
2022/09/23 08:33:52;;;;;;;18.05;12.15;;;11.60;99.90;;;;;;5018970;28;20053;-72
2022/09/23 08:36:18;;;;;;;17.85;12.45;;;11.60;99.90;;;;;;5000781;28;20520;-72
2022/09/23 08:38:44;;;;;;;15.02;11.63;;;11.70;99.90;;;;;;5020333;28;20065;-70
2022/09/23 08:41:47;;;;;;;16.60;10.88;;;11.80;99.90;;;;;;5016012;28;20051;-71
2022/09/23 08:44:28;;;;;;;14.38;10.63;;;11.90;99.90;;;;;;5034502;28;20041;-70
2022/09/23 08:47:11;;;;;;;16.58;11.05;;;12.00;99.90;;;;;;5020341;28;20068;-71
2022/09/23 08:50:00;;;;;;;14.30;10.40;;;12.00;99.90;;;;;;5018471;28;20045;-71
2022/09/23 08:52:48;;;;;;;15.68;11.18;;;12.10;99.90;;;;;;5039147;28;20103;-71
2022/09/23 08:55:15;;;;;;;16.02;11.05;;;12.20;99.90;;;;;;5037462;28;20053;-71
2022/09/23 08:58:26;;;;;;;17.02;11.13;;;12.20;99.90;;;;;;5001962;28;20042;-71
2022/09/23 09:00:58;;;;;;;14.30;11.02;;;12.30;99.90;;;;;;5009758;28;20061;-72
2022/09/23 09:03:31;;;;;;;14.65;10.38;;;12.40;99.90;;;;;;5023266;28;20056;-71
2022/09/23 09:05:57;;;;;;;14.63;10.40;;;12.40;99.90;;;;;;5021347;28;20080;-71
2022/09/23 09:08:35;;;;;;;13.68;10.25;;;12.40;99.90;;;;;;5024098;28;20573;-71
2022/09/23 09:11:02;;;;;;;15.25;10.30;;;12.40;99.90;;;;;;5037652;28;20048;-71
2022/09/23 09:13:33;;;;;;;14.23;9.80;;;12.50;99.90;;;;;;5023016;28;20091;-72
2022/09/23 09:16:45;;;;;;;14.32;10.02;;;12.50;99.90;;;;;;5029300;28;20137;-71
2022/09/23 09:19:32;;;;;;;16.17;10.25;;;12.60;99.90;;;;;;5010312;28;20065;-70
2022/09/23 09:21:59;;;;;;;15.35;9.52;;;12.60;99.90;;;;;;5035843;28;20491;-72
2022/09/23 09:24:32;;;;;;;14.05;9.38;;;12.70;99.90;;;;;;5020807;28;20049;-72
2022/09/23 09:27:07;;;;;;;16.05;9.73;;;12.80;99.90;;;;;;5036245;28;20069;-73
2022/09/23 09:29:39;;;;;;;15.13;9.38;;;12.90;99.90;;;;;;5020279;28;20049;-70
2022/09/23 09:32:23;;;;;;;15.20;9.70;;;12.90;99.90;;;;;;5018289;28;20558;-71
2022/09/23 09:34:59;;;;;;;17.50;9.60;;;13.00;99.90;;;;;;5004671;28;20180;-72
2022/09/23 09:37:35;;;;;;;15.77;9.63;;;13.10;99.90;;;;;;5034982;28;20049;-71
2022/09/23 09:40:02;;;;;;;12.93;8.98;;;13.10;99.90;;;;;;5018283;28;20121;-71
2022/09/23 09:42:40;;;;;;;14.65;9.27;;;13.20;99.90;;;;;;5020400;28;21860;-72
2022/09/23 09:45:29;;;;;;;16.77;9.68;;;13.20;99.90;;;;;;5033798;28;20120;-72
2022/09/23 09:48:11;;;;;;;12.80;9.10;;;13.20;99.90;;;;;;5017875;28;20045;-71
2022/09/23 09:50:48;;;;;;;16.00;9.25;;;13.20;99.90;;;;;;5018435;28;20431;-71
2022/09/23 09:53:24;;;;;;;12.35;9.35;;;13.30;99.90;;;;;;5016946;28;20053;-71
2022/09/23 09:56:13;;;;;;;16.33;9.65;;;13.30;99.90;;;;;;5000884;28;20045;-71
2022/09/23 09:58:45;;;;;;;14.70;9.57;;;13.30;99.90;;;;;;5018412;28;20465;-71
2022/09/23 10:01:21;;;;;;;15.18;9.05;;;13.40;99.90;;;;;;5015366;28;20053;-72
2022/09/23 10:03:49;;;;;;;14.82;9.35;;;13.40;99.90;;;;;;5023694;28;20050;-72
2022/09/23 10:06:34;;;;;;;14.02;9.18;;;13.40;99.90;;;;;;5021058;28;20056;-71
2022/09/23 10:09:03;;;;;;;19.33;10.30;;;13.40;99.90;;;;;;5020346;28;20044;-71
2022/09/23 10:11:30;;;;;;;15.35;10.15;;;13.50;99.90;;;;;;5024522;28;20540;-71
2022/09/23 10:14:03;;;;;;;13.23;9.48;;;13.50;99.90;;;;;;5022631;28;20069;-71
2022/09/23 10:16:30;;;;;;;15.30;10.57;;;13.60;99.90;;;;;;5026354;28;20095;-71
2022/09/23 10:18:57;;;;;;;14.90;10.32;;;13.60;99.90;;;;;;5022829;28;20128;-72
2022/09/23 10:21:32;;;;;;;18.65;9.77;;;13.60;99.90;;;;;;5021926;28;20110;-72
2022/09/23 10:23:59;;;;;;;17.33;10.07;;;13.70;99.90;;;;;;5023565;28;20048;-72
2022/09/23 10:26:36;;;;;;;14.00;9.52;;;13.70;99.90;;;;;;5023325;28;20525;-72
2022/09/23 10:29:19;;;;;;;14.60;10.10;;;13.70;99.90;;;;;;5021227;28;20073;-71
2022/09/23 10:31:45;;;;;;;18.92;10.70;;;13.80;99.90;;;;;;5023434;28;20107;-71
2022/09/23 10:34:25;;;;;;;13.55;10.15;;;13.80;99.90;;;;;;5000038;28;20041;-72
2022/09/23 10:37:01;;;;;;;16.58;9.73;;;13.80;99.90;;;;;;5020952;28;20486;-73
2022/09/23 10:48:46;;;;;;;14.57;9.85;;;14.00;99.90;;;;;;5015250;28;20459;-73
2022/09/23 10:51:26;;;;;;;16.92;9.90;;;14.10;99.90;;;;;;5015418;28;20057;-72
2022/09/23 10:54:17;;;;;;;16.38;9.80;;;14.10;99.90;;;;;;5014439;28;20056;-72
2022/09/23 10:56:46;;;;;;;14.75;10.10;;;14.20;99.90;;;;;;5024302;28;20119;-72
2022/09/23 10:59:39;;;;;;;14.30;9.75;;;14.30;99.90;;;;;;5012740;28;20041;-72
2022/09/23 11:02:24;;;;;;;16.52;10.23;;;14.30;99.90;;;;;;5010721;28;20075;-72
2022/09/23 11:05:25;;;;;;;15.88;10.40;;;14.40;99.90;;;;;;4993805;28;20041;-72
2022/09/23 11:08:22;;;;;;;16.20;10.15;;;14.50;99.90;;;;;;5013943;28;20049;-72
2022/09/23 11:10:51;;;;;;;14.52;10.35;;;14.50;99.90;;;;;;5013237;28;20046;-72
2022/09/23 11:13:26;;;;;;;18.33;9.88;;;14.60;99.90;;;;;;5012752;28;20121;-72
2022/09/23 11:16:31;;;;;;;16.98;10.20;;;14.60;99.90;;;;;;5014599;28;20491;-72
2022/09/23 11:19:20;;;;;;;16.33;10.60;;;14.60;99.90;;;;;;5003121;28;20049;-72
2022/09/23 11:22:14;;;;;;;15.25;10.15;;;14.70;99.90;;;;;;5018113;28;20049;-73
2022/09/23 11:25:09;;;;;;;18.33;10.40;;;14.70;99.90;;;;;;5031702;28;20045;-72
2022/09/23 11:28:11;;;;;;;13.68;9.98;;;14.70;99.90;;;;;;5017068;28;20563;-72
2022/09/23 11:30:53;;;;;;;;;;;14.70;99.90;;;;;;5049558;28;20053;-72
2022/09/23 11:33:51;;;;;;;15.75;10.73;;;14.70;99.90;;;;;;5014045;28;20413;-72
2022/09/23 11:36:17;;;;;;;17.80;11.32;;;14.70;99.90;;;;;;5017781;28;20072;-72
2022/09/23 11:38:47;;;;;;;14.57;10.25;;;14.70;99.90;;;;;;5017611;28;20518;-73
2022/09/23 11:41:22;;;;;;;16.90;11.20;;;14.80;99.90;;;;;;5014980;28;20061;-72
2022/09/23 11:44:12;;;;;;;15.82;11.10;;;14.80;99.90;;;;;;5031817;28;20041;-73
2022/09/23 11:46:40;;;;;;;18.83;11.63;;;14.80;99.90;;;;;;5007771;28;20322;-73
2022/09/23 11:49:17;;;;;;;21.00;11.57;;;14.90;99.90;;;;;;4999545;28;20058;-72
2022/09/23 11:52:07;;;;;;;17.33;11.05;;;14.90;99.90;;;;;;5016360;28;20042;-72
2022/09/23 11:55:07;;;;;;;20.50;11.60;;;14.90;99.90;;;;;;5015293;28;21934;-72
2022/09/23 11:57:50;;;;;;;17.58;12.05;;;14.90;99.90;;;;;;5017546;28;20052;-74
2022/09/23 12:00:23;;;;;;;16.05;11.40;;;15.00;99.90;;;;;;5030657;28;20061;-74
2022/09/23 12:03:17;;;;;;;17.85;11.27;;;15.10;99.90;;;;;;5008086;28;20087;-73
2022/09/23 12:06:08;;;;;;;21.05;12.27;;;15.00;99.90;;;;;;4992549;28;20057;-72
2022/09/23 12:08:37;;;;;;;16.17;12.32;;;15.10;99.90;;;;;;5013371;28;20037;-72
2022/09/23 12:11:24;;;;;;;16.33;12.15;;;15.10;99.90;;;;;;5007721;28;20060;-73
2022/09/23 12:14:07;;;;;;;18.52;11.60;;;15.10;99.90;;;;;;5007983;28;20049;-73
2022/09/23 12:16:33;;;;;;;18.23;12.48;;;15.10;99.90;;;;;;5022223;28;20055;-73
2022/09/23 12:19:38;;;;;;;18.00;12.80;;;15.20;99.90;;;;;;5027974;28;20053;-74
2022/09/23 12:22:14;;;;;;;19.13;12.73;;;15.20;99.90;;;;;;5000541;28;20056;-73
2022/09/23 12:24:57;;;;;;;19.27;13.55;;;15.20;99.90;;;;;;5013182;28;20049;-72
2022/09/23 12:27:46;;;;;;;21.98;13.80;;;15.20;99.90;;;;;;5013256;28;20049;-73
2022/09/23 12:30:35;;;;;;;20.10;12.50;;;15.20;99.90;;;;;;5018879;28;20538;-73
2022/09/23 12:33:25;;;;;;;18.48;13.13;;;15.30;99.90;;;;;;5014156;28;21064;-72
2022/09/23 12:36:13;;;;;;;16.65;12.70;;;15.30;99.90;;;;;;5014131;28;20181;-73
2022/09/23 12:38:47;;;;;;;16.38;11.70;;;15.30;99.90;;;;;;5013125;28;20053;-73
2022/09/23 12:41:22;;;;;;;22.02;13.70;;;15.30;99.90;;;;;;5012745;28;20453;-73
2022/09/23 12:43:58;;;;;;;15.18;12.52;;;15.30;99.90;;;;;;5013864;28;20348;-73
2022/09/23 12:46:26;;;;;;;22.45;13.50;;;15.30;99.90;;;;;;5016002;28;20690;-72
2022/09/23 12:48:58;;;;;;;16.42;13.00;;;15.30;99.90;;;;;;5019050;28;20703;-72
2022/09/23 12:51:29;;;;;;;20.38;13.82;;;15.30;99.90;;;;;;5031189;28;20108;-73
2022/09/23 12:54:04;;;;;;;21.23;13.85;;;15.30;99.90;;;;;;4998830;28;20057;-72
2022/09/23 12:56:35;;;;;;;18.00;13.43;;;15.30;99.90;;;;;;5015295;28;20123;-72
2022/09/23 12:59:20;;;;;;;20.83;13.50;;;15.30;99.90;;;;;;5032442;28;20045;-73
2022/09/23 13:01:46;;;;;;;18.70;13.20;;;15.30;99.90;;;;;;5023733;28;20100;-70
2022/09/23 13:07:15;;;;;;;21.63;14.48;;;15.30;99.90;;;;;;5010839;28;20140;-70
2022/09/23 13:09:46;;;;;;;19.40;14.00;;;15.30;99.90;;;;;;5012696;28;20429;-70
2022/09/23 13:12:26;;;;;;;20.33;14.70;;;15.30;99.90;;;;;;5015805;28;20546;-69
2022/09/23 13:14:55;;;;;;;22.77;14.27;;;15.30;99.90;;;;;;5011341;28;20571;-70
2022/09/23 13:17:39;;;;;;;21.50;14.55;;;15.30;99.90;;;;;;5028642;28;20072;-70
2022/09/23 13:20:28;;;;;;;18.13;14.13;;;15.30;99.90;;;;;;4995277;28;20119;-70